Time,TemperatureF,DewpointF,PressureIn,WindDirection,WindDirectionDegrees,WindSpeedMPH,WindSpeedGustMPH,Humidity,HourlyPrecipIn,Conditions,Clouds,dailyrainin,SoftwareType,DateUTC
2013-04-05 00:09:00,44.1,32.3,30.05,NNW,327,11.6,16.6,63,0.00,,CLR,0.00,VWS V14.00,2013-04-05 05:09:00,
2013-04-05 00:20:00,43.5,32.2,30.05,NW,317,8.1,16.1,64,0.00,,CLR,0.00,VWS V14.00,2013-04-05 05:20:00,
2013-04-05 00:30:00,43.2,32.6,30.05,NW,321,11.6,16.1,66,0.00,,CLR,0.00,VWS V14.00,2013-04-05 05:30:00,
2013-04-05 00:39:00,42.6,32.4,30.05,NW,319,9.8,12.5,67,0.00,,CLR,0.00,VWS V14.00,2013-04-05 05:39:00,
2013-04-05 00:50:00,42.3,32.1,30.05,NW,322,8.1,12.5,67,0.00,,CLR,0.00,VWS V14.00,2013-04-05 05:50:00,
2013-04-05 00:59:00,42.3,32.1,30.05,NNW,336,11.6,12.5,67,0.00,,CLR,0.00,VWS V14.00,2013-04-05 05:59:00,
2013-04-05 01:09:00,42.3,31.4,30.05,NNW,330,11.6,12.5,65,0.00,,CLR,0.00,VWS V14.00,2013-04-05 06:09:00,
2013-04-05 01:29:00,42.4,30.0,30.05,NNW,333,8.1,15.2,61,0.00,,CLR,0.00,VWS V14.00,2013-04-05 06:29:00,
2013-04-05 01:39:00,41.9,29.9,30.08,NW,324,10.7,12.5,62,0.00,,CLR,0.00,VWS V14.00,2013-04-05 06:39:00,
2013-04-05 01:49:00,41.2,29.6,30.08,NNW,330,6.3,12.5,63,0.00,,CLR,0.00,VWS V14.00,2013-04-05 06:49:00,
2013-04-05 01:59:00,40.6,29.4,30.08,NW,322,7.2,12.5,64,0.00,,CLR,0.00,VWS V14.00,2013-04-05 06:59:00,
2013-04-05 02:09:00,40.3,29.1,30.08,NW,311,7.2,12.5,64,0.00,,CLR,0.00,VWS V14.00,2013-04-05 07:09:00,
2013-04-05 02:19:00,39.9,28.8,30.08,NW,324,8.1,12.5,64,0.00,,CLR,0.00,VWS V14.00,2013-04-05 07:19:00,
2013-04-05 02:29:00,39.7,28.6,30.08,NNW,343,8.1,10.7,64,0.00,,CLR,0.00,VWS V14.00,2013-04-05 07:29:00,
2013-04-05 02:39:00,39.6,28.4,30.08,NW,313,4.5,10.7,64,0.00,,CLR,0.00,VWS V14.00,2013-04-05 07:39:00,
2013-04-05 02:59:00,39.0,28.3,30.08,NW,311,10.7,12.5,65,0.00,,CLR,0.00,VWS V14.00,2013-04-05 07:59:00,
2013-04-05 03:09:00,38.7,27.9,30.08,NNW,328,9.8,15.2,65,0.00,,CLR,0.00,VWS V14.00,2013-04-05 08:09:00,
2013-04-05 03:19:00,38.7,27.5,30.08,North,351,8.1,14.3,64,0.00,,CLR,0.00,VWS V14.00,2013-04-05 08:19:00,
2013-04-05 03:29:00,38.8,27.3,30.08,NNW,338,12.5,16.6,63,0.00,,CLR,0.00,VWS V14.00,2013-04-05 08:29:00,
2013-04-05 03:49:00,38.5,26.6,30.08,NNW,340,10.7,17.4,62,0.00,,CLR,0.00,VWS V14.00,2013-04-05 08:49:00,
2013-04-05 03:59:00,38.3,26.4,30.08,NNW,328,7.2,15.2,62,0.00,,CLR,0.00,VWS V14.00,2013-04-05 08:59:00,
2013-04-05 04:09:00,38.1,26.3,30.11,North,357,11.6,17.4,62,0.00,,CLR,0.00,VWS V14.00,2013-04-05 09:09:00,
2013-04-05 04:20:00,38.1,25.9,30.11,NW,311,12.5,16.1,61,0.00,,CLR,0.00,VWS V14.00,2013-04-05 09:20:00,
2013-04-05 04:30:00,37.9,26.1,30.11,NW,316,10.7,17.4,62,0.00,,CLR,0.00,VWS V14.00,2013-04-05 09:30:00,
2013-04-05 04:40:00,37.6,25.8,30.11,NW,322,9.8,16.6,62,0.00,,CLR,0.00,VWS V14.00,2013-04-05 09:40:00,
2013-04-05 04:50:00,37.6,25.8,30.11,WNW,302,8.1,16.1,62,0.00,,CLR,0.00,VWS V14.00,2013-04-05 09:50:00,
2013-04-05 04:59:00,37.2,25.8,30.11,NNW,335,6.3,12.5,63,0.00,,CLR,0.00,VWS V14.00,2013-04-05 09:59:00,
2013-04-05 05:09:00,36.9,25.5,30.14,North,351,5.4,11.6,63,0.00,,CLR,0.00,VWS V14.00,2013-04-05 10:09:00,
2013-04-05 05:19:00,36.5,25.5,30.14,NNW,336,5.4,10.7,64,0.00,,CLR,0.00,VWS V14.00,2013-04-05 10:19:00,
2013-04-05 05:29:00,36.0,25.4,30.14,North,1,5.4,8.1,65,0.00,,CLR,0.00,VWS V14.00,2013-04-05 10:29:00,
2013-04-05 05:39:00,35.4,25.6,30.14,North,358,8.9,10.7,67,0.00,,CLR,0.00,VWS V14.00,2013-04-05 10:39:00,
2013-04-05 05:49:00,35.1,25.9,30.14,NNW,348,6.3,10.7,69,0.00,,CLR,0.00,VWS V14.00,2013-04-05 10:49:00,
2013-04-05 05:59:00,34.7,25.9,30.14,North,2,0.0,12.5,70,0.00,,CLR,0.00,VWS V14.00,2013-04-05 10:59:00,
2013-04-05 06:09:00,34.5,26.1,30.17,North,357,5.4,10.7,71,0.00,,CLR,0.00,VWS V14.00,2013-04-05 11:09:00,
2013-04-05 06:19:00,34.5,26.4,30.17,North,360,0.0,8.1,72,0.00,,CLR,0.00,VWS V14.00,2013-04-05 11:19:00,
2013-04-05 06:29:00,34.3,26.3,30.17,North,354,4.5,7.2,72,0.00,,CLR,0.00,VWS V14.00,2013-04-05 11:29:00,
2013-04-05 06:39:00,34.3,26.6,30.17,North,356,4.5,7.2,73,0.00,,CLR,0.00,VWS V14.00,2013-04-05 11:39:00,
2013-04-05 06:49:00,34.2,26.4,30.17,North,1,0.0,7.2,73,0.00,,CLR,0.00,VWS V14.00,2013-04-05 11:49:00,
2013-04-05 06:59:00,34.0,26.2,30.17,NNW,328,0.0,5.4,73,0.00,,CLR,0.00,VWS V14.00,2013-04-05 11:59:00,
2013-04-05 07:09:00,34.3,26.6,30.20,North,353,4.5,7.2,73,0.00,,CLR,0.00,VWS V14.00,2013-04-05 12:09:00,
2013-04-05 07:29:00,35.2,27.1,30.20,North,360,7.2,8.1,72,0.00,,CLR,0.00,VWS V14.00,2013-04-05 12:29:00,
2013-04-05 07:39:00,35.8,27.3,30.20,NNE,12,5.4,10.7,71,0.00,,CLR,0.00,VWS V14.00,2013-04-05 12:39:00,
2013-04-05 07:49:00,36.3,27.5,30.20,North,359,7.2,10.7,70,0.00,,CLR,0.00,VWS V14.00,2013-04-05 12:49:00,
2013-04-05 08:08:00,37.4,28.2,30.20,North,356,9.8,10.7,69,0.00,,CLR,0.00,VWS V14.00,2013-04-05 13:08:00,
2013-04-05 08:20:00,38.3,28.3,30.20,NNE,16,12.5,12.5,67,0.00,,CLR,0.00,VWS V14.00,2013-04-05 13:20:00,
2013-04-05 08:30:00,39.0,28.3,30.23,NNE,28,6.3,12.5,65,0.00,,CLR,0.00,VWS V14.00,2013-04-05 13:30:00,
2013-04-05 08:39:00,39.9,28.0,30.23,North,6,9.8,16.1,62,0.00,,CLR,0.00,VWS V14.00,2013-04-05 13:39:00,
2013-04-05 08:50:00,40.5,27.3,30.23,North,356,9.8,21.0,59,0.00,,CLR,0.00,VWS V14.00,2013-04-05 13:50:00,
2013-04-05 08:59:00,41.2,27.1,30.23,NNE,25,9.8,18.3,57,0.00,,CLR,0.00,VWS V14.00,2013-04-05 13:59:00,
2013-04-05 09:09:00,41.5,26.6,30.23,NNE,21,8.1,15.2,55,0.00,,CLR,0.00,VWS V14.00,2013-04-05 14:09:00,
2013-04-05 09:19:00,42.4,27.4,30.23,NNE,13,9.8,14.3,55,0.00,,CLR,0.00,VWS V14.00,2013-04-05 14:19:00,
2013-04-05 09:29:00,43.2,27.2,30.23,ENE,57,6.3,19.2,53,0.00,,CLR,0.00,VWS V14.00,2013-04-05 14:29:00,
2013-04-05 09:39:00,44.2,27.7,30.23,NNE,23,8.1,20.1,52,0.00,,CLR,0.00,VWS V14.00,2013-04-05 14:39:00,
2013-04-05 09:59:00,45.0,27.0,30.23,ENE,68,10.7,12.5,49,0.00,,CLR,0.00,VWS V14.00,2013-04-05 14:59:00,
2013-04-05 10:09:00,45.7,27.6,30.23,NE,39,8.1,17.4,49,0.00,,CLR,0.00,VWS V14.00,2013-04-05 15:09:00,
2013-04-05 10:29:00,47.1,28.5,30.23,NNE,12,11.6,17.4,48,0.00,,CLR,0.00,VWS V14.00,2013-04-05 15:29:00,
2013-04-05 10:39:00,47.8,28.6,30.23,ENE,73,11.6,16.1,47,0.00,,CLR,0.00,VWS V14.00,2013-04-05 15:39:00,
2013-04-05 10:49:00,48.0,27.2,30.23,ENE,78,7.2,16.6,44,0.00,,CLR,0.00,VWS V14.00,2013-04-05 15:49:00,
2013-04-05 11:09:00,48.7,27.3,30.23,East,80,18.3,18.3,43,0.00,,CLR,0.00,VWS V14.00,2013-04-05 16:09:00,
2013-04-05 11:29:00,48.6,26.0,30.26,North,8,6.3,15.2,41,0.00,,CLR,0.00,VWS V14.00,2013-04-05 16:29:00,
2013-04-05 11:39:00,49.5,26.2,30.26,ENE,72,10.7,15.2,40,0.00,,CLR,0.00,VWS V14.00,2013-04-05 16:39:00,
2013-04-05 11:49:00,49.6,25.7,30.23,NNE,33,11.6,12.5,39,0.00,,CLR,0.00,VWS V14.00,2013-04-05 16:49:00,
2013-04-05 11:58:00,49.8,25.9,30.23,NE,52,10.7,16.6,39,0.00,,CLR,0.00,VWS V14.00,2013-04-05 16:58:00,
2013-04-05 12:09:00,50.2,25.6,30.23,North,7,12.5,16.6,38,0.00,,CLR,0.00,VWS V14.00,2013-04-05 17:09:00,
2013-04-05 12:20:00,50.2,25.6,30.23,ENE,58,19.2,19.2,38,0.00,,CLR,0.00,VWS V14.00,2013-04-05 17:20:00,
2013-04-05 12:30:00,50.5,25.9,30.23,NNE,20,6.3,21.0,38,0.00,,CLR,0.00,VWS V14.00,2013-04-05 17:30:00,
2013-04-05 12:40:00,51.3,26.5,30.23,ENE,73,15.2,15.2,38,0.00,,CLR,0.00,VWS V14.00,2013-04-05 17:40:00,
2013-04-05 12:49:00,51.1,25.7,30.23,ENE,63,9.8,16.1,37,0.00,,CLR,0.00,VWS V14.00,2013-04-05 17:49:00,
2013-04-05 13:00:00,51.6,26.2,30.23,East,84,16.1,17.4,37,0.00,,CLR,0.00,VWS V14.00,2013-04-05 18:00:00,
2013-04-05 13:09:00,52.5,27.0,30.20,NE,54,12.5,17.4,37,0.00,,CLR,0.00,VWS V14.00,2013-04-05 18:09:00,
2013-04-05 13:19:00,53.4,27.1,30.20,NE,43,10.7,21.0,36,0.00,,CLR,0.00,VWS V14.00,2013-04-05 18:19:00,
2013-04-05 13:29:00,53.4,27.1,30.20,NE,54,16.1,16.1,36,0.00,,CLR,0.00,VWS V14.00,2013-04-05 18:29:00,
2013-04-05 13:39:00,52.9,26.7,30.20,ENE,77,12.5,17.4,36,0.00,,CLR,0.00,VWS V14.00,2013-04-05 18:39:00,
2013-04-05 13:49:00,53.6,27.3,30.20,NNE,25,14.3,16.1,36,0.00,,CLR,0.00,VWS V14.00,2013-04-05 18:49:00,
2013-04-05 13:59:00,53.6,26.6,30.20,North,355,6.3,16.6,35,0.00,,CLR,0.00,VWS V14.00,2013-04-05 18:59:00,
2013-04-05 14:09:00,53.2,27.0,30.20,ENE,61,7.2,16.1,36,0.00,,CLR,0.00,VWS V14.00,2013-04-05 19:09:00,
2013-04-05 14:19:00,52.9,26.7,30.20,East,83,8.1,12.5,36,0.00,,CLR,0.00,VWS V14.00,2013-04-05 19:19:00,
2013-04-05 14:29:00,53.2,27.0,30.17,East,85,5.4,11.6,36,0.00,,CLR,0.00,VWS V14.00,2013-04-05 19:29:00,
2013-04-05 14:39:00,54.3,27.3,30.17,ESE,119,0.0,16.6,35,0.00,,CLR,0.00,VWS V14.00,2013-04-05 19:39:00,
2013-04-05 14:49:00,52.3,26.2,30.17,ENE,58,9.8,20.1,36,0.00,,CLR,0.00,VWS V14.00,2013-04-05 19:49:00,
2013-04-05 14:59:00,52.9,26.7,30.17,NE,47,11.6,12.5,36,0.00,,CLR,0.00,VWS V14.00,2013-04-05 19:59:00,
2013-04-05 15:29:00,52.9,26.7,30.17,East,94,11.6,12.5,36,0.00,,CLR,0.00,VWS V14.00,2013-04-05 20:29:00,
2013-04-05 15:39:00,53.1,26.8,30.17,ESE,115,0.0,12.5,36,0.00,,CLR,0.00,VWS V14.00,2013-04-05 20:39:00,
2013-04-05 15:49:00,54.1,27.1,30.17,NNE,28,5.4,16.1,35,0.00,,CLR,0.00,VWS V14.00,2013-04-05 20:49:00,
2013-04-05 15:59:00,52.7,26.5,30.17,NNW,330,5.4,12.5,36,0.00,,CLR,0.00,VWS V14.00,2013-04-05 20:59:00,
2013-04-05 16:20:00,52.7,26.5,30.17,North,5,6.3,15.2,36,0.00,,CLR,0.00,VWS V14.00,2013-04-05 21:20:00,
2013-04-05 16:30:00,52.5,26.4,30.17,NE,45,7.2,13.4,36,0.00,,CLR,0.00,VWS V14.00,2013-04-05 21:30:00,
2013-04-05 16:40:00,53.1,26.8,30.17,ENE,61,4.5,14.3,36,0.00,,CLR,0.00,VWS V14.00,2013-04-05 21:40:00,
2013-04-05 16:50:00,53.8,26.8,30.17,NE,53,12.5,17.4,35,0.00,,CLR,0.00,VWS V14.00,2013-04-05 21:50:00,
2013-04-05 16:59:00,52.7,25.8,30.17,NE,49,6.3,15.2,35,0.00,,CLR,0.00,VWS V14.00,2013-04-05 21:59:00,
2013-04-05 17:09:00,51.8,25.0,30.17,NE,50,6.3,16.1,35,0.00,,CLR,0.00,VWS V14.00,2013-04-05 22:09:00,
2013-04-05 17:19:00,51.8,25.7,30.17,NE,53,7.2,11.6,36,0.00,,CLR,0.00,VWS V14.00,2013-04-05 22:19:00,
2013-04-05 17:29:00,51.1,25.1,30.17,East,86,7.2,12.5,36,0.00,,CLR,0.00,VWS V14.00,2013-04-05 22:29:00,
2013-04-05 17:39:00,50.9,24.9,30.17,East,95,6.3,15.2,36,0.00,,CLR,0.00,VWS V14.00,2013-04-05 22:39:00,
2013-04-05 17:49:00,50.4,24.4,30.17,NE,53,6.3,11.6,36,0.00,,CLR,0.00,VWS V14.00,2013-04-05 22:49:00,
2013-04-05 17:59:00,49.8,24.0,30.17,NE,45,13.4,16.6,36,0.00,,SCT120,0.00,VWS V14.00,2013-04-05 22:59:00,
2013-04-05 18:09:00,49.8,24.0,30.17,ENE,74,11.6,19.2,36,0.00,,SCT120,0.00,VWS V14.00,2013-04-05 23:09:00,
2013-04-05 18:19:00,49.1,23.3,30.17,ENE,58,7.2,16.1,36,0.00,,SCT120,0.00,VWS V14.00,2013-04-05 23:19:00,
2013-04-05 18:29:00,48.7,23.6,30.17,ENE,63,10.7,16.1,37,0.00,,BKN120,0.00,VWS V14.00,2013-04-05 23:29:00,
2013-04-05 18:49:00,47.5,22.5,30.17,ENE,57,6.3,16.6,37,0.00,,BKN110,0.00,VWS V14.00,2013-04-05 23:49:00,
2013-04-05 19:29:00,45.5,21.4,30.17,ENE,74,17.4,24.6,38,0.00,,BKN110,0.00,VWS V14.00,2013-04-06 00:29:00,
2013-04-05 19:39:00,44.8,20.7,30.17,ESE,121,12.5,17.4,38,0.00,,BKN110,0.00,VWS V14.00,2013-04-06 00:39:00,
2013-04-05 19:49:00,44.2,20.9,30.17,ENE,65,10.7,21.0,39,0.00,,OVC110,0.00,VWS V14.00,2013-04-06 00:49:00,
2013-04-05 19:59:00,43.7,20.4,30.17,ESE,109,15.2,20.1,39,0.00,,OVC100,0.00,VWS V14.00,2013-04-06 00:59:00,
2013-04-05 20:10:00,43.2,19.9,30.17,ENE,64,6.3,19.2,39,0.00,,OVC100,0.00,VWS V14.00,2013-04-06 01:10:00,
2013-04-05 20:20:00,42.8,19.6,30.17,ENE,73,10.7,24.6,39,0.00,,OVC100,0.00,VWS V14.00,2013-04-06 01:20:00,
2013-04-05 20:30:00,42.6,19.4,30.17,NE,53,10.7,21.9,39,0.00,,OVC110,0.00,VWS V14.00,2013-04-06 01:30:00,
2013-04-05 20:49:00,41.9,18.2,30.17,NE,56,11.6,24.6,38,0.00,,OVC110,0.00,VWS V14.00,2013-04-06 01:49:00,
2013-04-05 21:00:00,41.5,17.8,30.17,ENE,67,15.2,21.9,38,0.00,,OVC090,0.00,VWS V14.00,2013-04-06 02:00:00,
2013-04-05 21:09:00,41.4,17.7,30.17,ESE,107,8.1,23.7,38,0.00,,OVC090,0.00,VWS V14.00,2013-04-06 02:09:00,
2013-04-05 21:19:00,41.2,17.5,30.17,ENE,75,11.6,21.9,38,0.00,,OVC090,0.00,VWS V14.00,2013-04-06 02:19:00,
2013-04-05 21:29:00,40.8,17.8,30.14,ENE,73,15.2,29.1,39,0.00,,OVC090,0.00,VWS V14.00,2013-04-06 02:29:00,
2013-04-05 21:39:00,40.6,17.6,30.14,ENE,60,11.6,20.1,39,0.00,,OVC090,0.00,VWS V14.00,2013-04-06 02:39:00,
2013-04-05 21:49:00,40.5,17.5,30.14,ENE,77,16.1,24.6,39,0.00,,OVC070,0.00,VWS V14.00,2013-04-06 02:49:00,
2013-04-05 21:59:00,40.3,17.3,30.17,ENE,57,13.4,20.1,39,0.00,,OVC070,0.00,VWS V14.00,2013-04-06 02:59:00,
2013-04-05 22:09:00,40.3,17.3,30.17,East,96,11.6,17.4,39,0.00,,BKN090,0.00,VWS V14.00,2013-04-06 03:09:00,
2013-04-05 22:19:00,39.9,17.0,30.17,East,97,12.5,21.9,39,0.00,,BKN090,0.00,VWS V14.00,2013-04-06 03:19:00,
2013-04-05 22:29:00,39.9,17.0,30.17,ENE,78,11.6,16.6,39,0.00,,BKN090,0.00,VWS V14.00,2013-04-06 03:29:00,
2013-04-05 22:39:00,39.7,16.8,30.17,East,101,8.1,16.6,39,0.00,,-RA,0.00,VWS V14.00,2013-04-06 03:39:00,
2013-04-05 22:49:00,39.4,16.5,30.17,East,81,15.2,17.4,39,0.00,,SCT110,0.00,VWS V14.00,2013-04-06 03:49:00,
2013-04-05 22:59:00,39.4,16.5,30.17,ENE,70,6.3,17.4,39,0.00,,SCT110,0.00,VWS V14.00,2013-04-06 03:59:00,
2013-04-05 23:09:00,39.0,16.8,30.17,NE,49,7.2,12.5,40,0.00,,SCT120,0.00,VWS V14.00,2013-04-06 04:09:00,
2013-04-05 23:19:00,39.0,16.8,30.17,NE,55,8.1,16.1,40,0.00,,SCT120,0.00,VWS V14.00,2013-04-06 04:19:00,
2013-04-05 23:29:00,39.0,16.8,30.17,ENE,57,10.7,15.2,40,0.00,,SCT120,0.00,VWS V14.00,2013-04-06 04:29:00,
2013-04-05 23:39:00,39.0,16.8,30.14,NE,56,6.3,17.4,40,0.00,,SCT120,0.00,VWS V14.00,2013-04-06 04:39:00,
2013-04-05 23:49:00,38.5,17.4,30.14,ENE,72,10.7,19.2,42,0.00,,SCT120,0.00,VWS V14.00,2013-04-06 04:49:00,
2013-04-05 23:59:00,38.3,17.8,30.14,ENE,58,11.6,16.6,43,0.00,,SCT120,0.00,VWS V14.00,2013-04-06 04:59:00,